To NAV CANADA Home Page Login to a new session Search on AWWS site Disclaimer Vers la page française équivalente Tips FAQ What's new on the site To the Forecasts and Observations / NOTAM section To "File a Flight Plan" website Publications and other links Update of the User's profile FIC Telephone Numbers My Weather Data Folder Route Weather Data Regional Weather Data Local Weather Data To the Forecasts and Observations / NOTAM section
Request Generated 03/19/2019 at 23:07:01 UTC . Weather information available at that time is displayed.

METAR/TAF

COLD LAKE/GROUP CAPTAIN R.W. MCNAIR/AB    

METAR CYOD 192300Z 24008KT 15SM SCT250 12/M01 A3004 RMK CI3 SLP193=
METAR CYOD 192200Z 24008KT 15SM BKN250 12/M01 A3005 RMK CI5 SLP197=
METAR CYOD 192100Z 24012KT 15SM SCT250 11/M01 A3006 RMK CI4 SLP199=

TAF CYOD 192030Z 1921/2018 23010KT P6SM FEW250
BECMG 2001/2003 VRB03KT
RMK NXT FCST BY 200000Z=
Your time UTC time
Weather data provided by Environment Canada and NAV CANADA